Time;durP1;ratioP1;P1;durP2;ratioP2;P2;SDS_P1;SDS_P2;PMS_P1;PMS_P2;Temp;Humidity;BMP_temperature;BMP_pressure;BME280_temperature;BME280_humidity;BME280_pressure;Samples;Min_cycle;Max_cycle;Signal;HPM_P1;HPM_P2
2022/07/21 00:02:03;;;;;;;;;;;;;;;22.85;60.83;100767.00;4955883;28;7076;-78
2022/07/21 00:04:28;;;;;;;;;;;;;;;22.81;60.75;100765.25;4957490;28;6868;-79
2022/07/21 00:06:54;;;;;;;;;;;;;;;22.81;60.67;100767.88;4909252;28;6962;-79
2022/07/21 00:09:19;;;;;;;;;;;;;;;22.79;60.81;100763.50;4917166;28;7336;-78
2022/07/21 00:11:45;;;;;;;;;;;;;;;22.77;60.94;100768.72;4932643;28;7017;-78
2022/07/21 00:14:11;;;;;;;;;;;;;;;22.75;60.81;100770.47;4919916;28;6919;-78
2022/07/21 00:16:39;;;;;;;;;;;;;;;22.74;61.12;100761.75;4909759;28;7235;-78
2022/07/21 00:19:04;;;;;;;;;;;;;;;22.75;60.48;100757.41;4930749;28;7403;-78
2022/07/21 00:21:30;;;;;;;;;;;;;;;22.77;60.80;100760.03;4956250;28;7190;-78
2022/07/21 00:23:55;;;;;;;;;;;;;;;22.76;60.84;100766.97;4913011;28;7012;-79
2022/07/21 00:26:21;;;;;;;;;;;;;;;22.77;60.90;100773.09;4929165;28;6768;-79
2022/07/21 00:28:47;;;;;;;;;;;;;;;22.75;60.88;100760.00;4926651;28;8037;-79
2022/07/21 00:31:12;;;;;;;;;;;;;;;22.75;60.82;100762.63;4942805;28;7298;-79
2022/07/21 00:33:38;;;;;;;;;;;;;;;22.73;60.46;100756.53;4944773;28;7288;-78
2022/07/21 00:36:03;;;;;;;;;;;;;;;22.74;60.83;100758.28;4927303;28;6941;-78
2022/07/21 00:38:29;;;;;;;;;;;;;;;22.71;60.66;100759.13;4924083;28;6940;-78
2022/07/21 00:40:55;;;;;;;;;;;;;;;22.71;60.62;100763.50;4953785;28;8781;-78
2022/07/21 00:43:20;;;;;;;;;;;;;;;22.71;60.73;100761.72;4928460;28;6939;-79
2022/07/21 00:45:46;;;;;;;;;;;;;;;22.74;60.79;100764.38;4925113;28;7268;-78
2022/07/21 00:48:12;;;;;;;;;;;;;;;22.77;60.63;100763.50;4930067;28;6817;-78
2022/07/21 00:50:37;;;;;;;;;;;;;;;22.80;60.59;100765.25;4957364;28;6833;-78
2022/07/21 00:53:03;;;;;;;;;;;;;;;22.81;61.02;100762.66;4957424;28;7713;-79
2022/07/21 00:55:29;;;;;;;;;;;;;;;22.81;60.64;100773.09;4918217;28;6988;-79
2022/07/21 00:57:55;;;;;;;;;;;;;;;22.80;61.03;100779.19;4926052;28;7048;-78
2022/07/21 01:00:24;;;;;;;;;;;;;;;22.79;60.82;100767.00;4950799;28;6784;-78
2022/07/21 01:02:51;;;;;;;;;;;;;;;22.79;60.81;100764.41;4946124;28;7302;-78
2022/07/21 01:05:18;;;;;;;;;;;;;;;22.77;60.58;100758.28;4932737;28;6780;-78
2022/07/21 01:07:48;;;;;;;;;;;;;;;22.75;60.88;100757.41;4929787;28;6812;-78
2022/07/21 01:10:16;;;;;;;;;;;;;;;22.71;60.52;100755.66;4943820;28;7036;-78
2022/07/21 01:12:42;;;;;;;;;;;;;;;22.69;60.80;100762.59;4946335;28;7086;-78
2022/07/21 01:15:10;;;;;;;;;;;;;;;22.68;60.87;100763.47;4943540;28;7130;-78
2022/07/21 01:17:35;;;;;;;;;;;;;;;22.64;60.86;100762.56;4943817;28;6955;-78
2022/07/21 01:20:08;;;;;;;;;;;;;;;22.63;61.16;100766.06;4955223;28;6787;-78
2022/07/21 01:22:35;;;;;;;;;;;;;;;22.60;61.28;100766.94;4926546;28;6792;-78
2022/07/21 01:25:01;;;;;;;;;;;;;;;22.59;61.23;100767.78;4956795;28;6843;-78
2022/07/21 01:27:27;;;;;;;;;;;;;;;22.60;61.20;100766.94;4916743;28;6905;-78
2022/07/21 01:29:54;;;;;;;;;;;;;;;22.62;61.09;100769.53;4956220;28;7194;-79
2022/07/21 01:32:19;;;;;;;;;;;;;;;22.64;61.24;100761.72;4954071;28;7006;-78
2022/07/21 01:34:45;;;;;;;;;;;;;;;22.65;61.26;100768.69;4920887;28;8116;-78
2022/07/21 01:37:10;;;;;;;;;;;;;;;22.65;61.26;100755.63;4944613;28;6930;-78
2022/07/21 01:42:20;;;;;;;;;;;;;;;22.63;60.83;100746.91;4927065;28;6769;-78
2022/07/21 01:44:45;;;;;;;;;;;;;;;22.61;60.91;100747.78;4950128;28;6941;-78
2022/07/21 01:47:11;;;;;;;;;;;;;;;22.60;60.92;100740.81;4951667;28;6804;-78
2022/07/21 01:49:36;;;;;;;;;;;;;;;22.59;60.72;100752.09;4953615;28;6921;-78
2022/07/21 01:52:02;;;;;;;;;;;;;;;22.56;60.91;100754.72;4919020;28;6752;-78
2022/07/21 01:54:27;;;;;;;;;;;;;;;22.55;61.28;100759.91;4938712;28;7199;-78
2022/07/21 01:56:53;;;;;;;;;;;;;;;22.55;61.28;100771.25;4942081;28;7167;-78
2022/07/21 01:59:19;;;;;;;;;;;;;;;22.55;61.14;100766.03;4930343;28;6912;-79
2022/07/21 02:01:45;;;;;;;;;;;;;;;22.56;61.09;100766.91;4951860;28;6979;-79
2022/07/21 02:04:10;;;;;;;;;;;;;;;22.58;61.39;100773.00;4912306;28;7137;-79
2022/07/21 02:06:36;;;;;;;;;;;;;;;22.59;61.22;100774.75;4943040;28;7186;-78
2022/07/21 02:09:01;;;;;;;;;;;;;;;22.58;61.15;100776.47;4952257;28;7140;-78
2022/07/21 02:11:27;;;;;;;;;;;;;;;22.61;61.16;100773.91;4938639;28;6784;-78
2022/07/21 02:13:54;;;;;;;;;;;;;;;22.62;61.36;100777.38;4930145;28;6983;-78
2022/07/21 02:16:20;;;;;;;;;;;;;;;22.63;61.28;100775.66;4939850;28;7210;-78
2022/07/21 02:18:45;;;;;;;;;;;;;;;22.65;61.33;100774.78;4956344;28;7088;-78
2022/07/21 02:21:11;;;;;;;;;;;;;;;22.65;61.36;100776.53;4922574;28;6780;-78
2022/07/21 02:23:36;;;;;;;;;;;;;;;22.64;61.06;100773.03;4939557;28;6956;-78
2022/07/21 02:26:02;;;;;;;;;;;;;;;22.65;61.55;100776.53;4950867;28;7318;-78
2022/07/21 02:28:28;;;;;;;;;;;;;;;22.65;61.45;100773.91;4946128;28;6957;-78
2022/07/21 02:30:54;;;;;;;;;;;;;;;22.65;61.79;100777.41;4926935;28;6929;-78
2022/07/21 02:33:21;;;;;;;;;;;;;;;22.65;61.40;100774.78;4933884;28;8404;-77
2022/07/21 02:35:47;;;;;;;;;;;;;;;22.65;61.35;100769.56;4924023;28;7057;-77
2022/07/21 02:38:13;;;;;;;;;;;;;;;22.63;61.48;100771.28;4940271;28;7168;-77
2022/07/21 02:40:39;;;;;;;;;;;;;;;22.61;61.46;100773.91;4955089;28;7084;-77
2022/07/21 02:43:06;;;;;;;;;;;;;;;22.60;61.68;100766.94;4913317;29;7009;-77
2022/07/21 02:45:32;;;;;;;;;;;;;;;22.58;61.36;100763.44;4952270;28;7298;-77
2022/07/21 02:47:58;;;;;;;;;;;;;;;22.56;61.91;100765.16;4955645;28;7210;-79
2022/07/21 02:50:26;;;;;;;;;;;;;;;22.54;61.56;100768.63;4945004;28;7131;-79
2022/07/21 02:52:57;;;;;;;;;;;;;;;22.51;62.03;100771.25;4928098;28;7418;-80
2022/07/21 02:55:23;;;;;;;;;;;;;;;22.43;62.05;100765.97;4907945;28;6983;-80
2022/07/21 02:57:49;;;;;;;;;;;;;;;22.39;62.03;100761.56;4955882;28;7383;-80
2022/07/21 03:00:15;;;;;;;;;;;;;;;22.36;62.27;100770.28;4942504;28;8130;-80
2022/07/21 03:02:40;;;;;;;;;;;;;;;22.32;61.93;100765.88;4944939;28;6964;-80
2022/07/21 03:05:07;;;;;;;;;;;;;;;22.30;62.30;100765.88;4930604;28;6979;-80
2022/07/21 03:07:32;;;;;;;;;;;;;;;22.29;62.69;100758.91;4943806;28;7060;-80
2022/07/21 03:09:58;;;;;;;;;;;;;;;22.27;62.75;100758.03;4933658;29;7017;-79
2022/07/21 03:12:23;;;;;;;;;;;;;;;22.27;62.79;100759.78;4927287;28;7173;-80
2022/07/21 03:14:48;;;;;;;;;;;;;;;22.26;62.78;100755.41;4956613;28;7247;-81
2022/07/21 03:17:14;;;;;;;;;;;;;;;22.25;63.00;100754.56;4930866;29;6855;-80
2022/07/21 03:19:40;;;;;;;;;;;;;;;22.23;62.86;100751.06;4931262;28;7245;-80
2022/07/21 03:22:05;;;;;;;;;;;;;;;22.24;63.29;100754.53;4915373;29;7103;-80
2022/07/21 03:24:31;;;;;;;;;;;;;;;22.25;62.93;100762.38;4943601;28;7201;-80
2022/07/21 03:26:57;;;;;;;;;;;;;;;22.27;62.96;100757.19;4927522;28;7299;-80
2022/07/21 03:29:22;;;;;;;;;;;;;;;22.28;62.97;100757.16;4947712;28;6973;-80
2022/07/21 03:31:48;;;;;;;;;;;;;;;22.30;63.03;100758.03;4946289;28;7126;-80
2022/07/21 03:34:14;;;;;;;;;;;;;;;22.32;62.89;100748.50;4953656;28;7185;-80
2022/07/21 03:36:39;;;;;;;;;;;;;;;22.33;62.93;100749.34;4950643;28;6843;-80
2022/07/21 03:39:05;;;;;;;;;;;;;;;22.34;62.93;100756.31;4940094;28;6884;-80
2022/07/21 03:41:30;;;;;;;;;;;;;;;22.33;63.10;100752.84;4958125;28;6784;-80
2022/07/21 03:43:56;;;;;;;;;;;;;;;22.32;63.39;100751.13;4930419;29;7175;-80
2022/07/21 03:46:22;;;;;;;;;;;;;;;22.34;63.55;100754.59;4945100;28;7156;-80
2022/07/21 03:48:48;;;;;;;;;;;;;;;22.35;63.58;100750.22;4946040;28;6954;-79
2022/07/21 03:51:13;;;;;;;;;;;;;;;22.36;63.68;100748.50;4957631;28;6750;-79
2022/07/21 03:53:39;;;;;;;;;;;;;;;22.37;63.47;100747.63;4945225;28;7318;-79
2022/07/21 03:56:04;;;;;;;;;;;;;;;22.41;63.90;100755.50;4933610;28;6772;-79
2022/07/21 03:58:30;;;;;;;;;;;;;;;22.44;63.80;100754.63;4940833;28;7207;-79
2022/07/21 04:00:57;;;;;;;;;;;;;;;22.45;63.58;100743.31;4945394;28;7185;-79
2022/07/21 04:03:22;;;;;;;;;;;;;;;22.48;63.59;100745.94;4953657;28;7917;-79
2022/07/21 04:05:47;;;;;;;;;;;;;;;22.49;63.23;100745.09;4939823;28;6927;-79
2022/07/21 04:08:13;;;;;;;;;;;;;;;22.51;63.23;100747.72;4952473;28;6989;-80
2022/07/21 04:10:40;;;;;;;;;;;;;;;22.54;63.23;100750.34;4961081;28;6949;-80
2022/07/21 04:13:09;;;;;;;;;;;;;;;22.55;63.46;100745.13;4917116;28;6990;-79
2022/07/21 04:15:35;;;;;;;;;;;;;;;22.57;62.86;100740.78;4929032;28;7182;-79
2022/07/21 04:18:01;;;;;;;;;;;;;;;22.56;63.41;100757.31;4947001;28;7002;-79
2022/07/21 04:20:27;;;;;;;;;;;;;;;22.54;63.13;100752.97;4932272;28;7174;-79
2022/07/21 04:22:53;;;;;;;;;;;;;;;22.51;62.65;100751.22;4961928;28;7184;-79
2022/07/21 04:25:19;;;;;;;;;;;;;;;22.48;62.80;100757.28;4937253;28;7403;-79
2022/07/21 04:27:47;;;;;;;;;;;;;;;22.48;62.78;100751.16;4965712;28;8368;-79
2022/07/21 04:30:19;;;;;;;;;;;;;;;22.51;63.28;100756.44;4946865;28;6829;-79
2022/07/21 04:32:45;;;;;;;;;;;;;;;22.56;63.17;100751.25;4927250;28;11850;-79
2022/07/21 04:35:12;;;;;;;;;;;;;;;22.60;62.65;100756.50;4941051;28;7109;-79
2022/07/21 04:37:38;;;;;;;;;;;;;;;22.66;63.08;100755.63;4928938;28;7367;-79
2022/07/21 04:40:06;;;;;;;;;;;;;;;22.70;62.86;100751.31;4942764;28;6935;-79
2022/07/21 04:42:32;;;;;;;;;;;;;;;22.72;62.58;100747.81;4962905;28;6949;-79
2022/07/21 04:44:57;;;;;;;;;;;;;;;22.75;62.56;100747.84;4932923;28;7180;-79
2022/07/21 04:47:23;;;;;;;;;;;;;;;22.79;62.36;100751.34;4929857;28;6943;-80
2022/07/21 04:49:49;;;;;;;;;;;;;;;22.83;62.88;100753.06;4944203;28;6976;-79
2022/07/21 04:52:14;;;;;;;;;;;;;;;22.86;62.77;100747.84;4957162;28;7080;-79
2022/07/21 04:54:40;;;;;;;;;;;;;;;22.93;62.59;100758.31;4947135;28;6921;-79
2022/07/21 04:57:05;;;;;;;;;;;;;;;22.94;62.33;100753.13;4960595;28;7200;-79
2022/07/21 04:59:32;;;;;;;;;;;;;;;22.98;62.50;100752.22;4959110;28;6772;-79
2022/07/21 05:01:58;;;;;;;;;;;;;;;23.01;62.54;100751.38;4916862;28;6920;-80
2022/07/21 05:04:23;;;;;;;;;;;;;;;23.05;62.80;100755.72;4913319;29;7253;-80
2022/07/21 05:06:49;;;;;;;;;;;;;;;23.13;62.54;100754.00;4923652;28;6764;-79
2022/07/21 05:09:14;;;;;;;;;;;;;;;23.21;62.51;100758.38;4954479;28;7106;-80
2022/07/21 05:11:40;;;;;;;;;;;;;;;23.25;62.34;100754.88;4928565;28;6775;-80
2022/07/21 05:14:06;;;;;;;;;;;;;;;23.29;61.94;100761.91;4949014;28;8075;-80
2022/07/21 05:16:31;;;;;;;;;;;;;;;23.31;62.12;100765.38;4954148;28;6919;-80
2022/07/21 05:18:57;;;;;;;;;;;;;;;23.35;62.02;100771.50;4922760;28;7196;-80
2022/07/21 05:21:23;;;;;;;;;;;;;;;23.40;61.98;100765.41;4958464;28;7166;-80
2022/07/21 05:23:48;;;;;;;;;;;;;;;23.50;62.73;100754.94;4926699;28;7634;-80
2022/07/21 05:26:14;;;;;;;;;;;;;;;23.67;62.19;100762.78;4948666;28;7123;-80
2022/07/21 05:28:40;;;;;;;;;;;;;;;23.81;61.78;100760.16;4943721;28;8108;-80
2022/07/21 05:31:07;;;;;;;;;;;;;;;23.89;61.69;100762.75;4946785;28;7054;-79
2022/07/21 05:33:32;;;;;;;;;;;;;;;23.94;60.45;100761.84;4960642;28;6957;-80
2022/07/21 05:35:58;;;;;;;;;;;;;;;23.94;60.42;100756.63;4932299;28;6843;-80
2022/07/21 05:38:23;;;;;;;;;;;;;;;23.96;60.56;100756.63;4927991;29;7192;-80
2022/07/21 05:40:49;;;;;;;;;;;;;;;23.96;60.77;100754.91;4948741;28;7019;-80
2022/07/21 05:43:14;;;;;;;;;;;;;;;23.97;60.39;100756.66;4927732;28;6780;-80
2022/07/21 05:45:40;;;;;;;;;;;;;;;23.99;59.81;100759.22;4959633;28;7182;-80
2022/07/21 05:48:06;;;;;;;;;;;;;;;24.03;60.36;100747.91;4923182;28;6816;-80
2022/07/21 05:50:31;;;;;;;;;;;;;;;24.13;60.42;100751.38;4944130;28;7012;-80
2022/07/21 05:52:57;;;;;;;;;;;;;;;24.24;60.42;100743.50;4920359;28;7333;-79
2022/07/21 05:55:23;;;;;;;;;;;;;;;24.33;60.31;100747.81;4946739;28;6970;-79
2022/07/21 05:57:49;;;;;;;;;;;;;;;24.44;59.52;100759.16;4952247;28;7167;-79
2022/07/21 06:00:15;;;;;;;;;;;;;;;24.55;59.92;100762.59;4932086;28;8229;-79
2022/07/21 06:02:41;;;;;;;;;;;;;;;24.65;59.03;100765.19;4923856;29;6996;-79
2022/07/21 06:05:08;;;;;;;;;;;;;;;24.74;59.32;100759.91;4922427;29;6936;-79
2022/07/21 06:07:34;;;;;;;;;;;;;;;24.89;59.39;100763.31;4938040;28;7206;-79
2022/07/21 06:10:00;;;;;;;;;;;;;;;25.00;58.69;100758.03;4909387;29;6968;-79
2022/07/21 06:12:26;;;;;;;;;;;;;;;25.09;58.67;100758.81;4925489;28;7052;-79
2022/07/21 06:14:52;;;;;;;;;;;;;;;25.16;58.56;100771.91;4951267;28;7002;-79
2022/07/21 06:17:17;;;;;;;;;;;;;;;25.19;58.05;100764.91;4953775;28;6808;-79
2022/07/21 06:19:43;;;;;;;;;;;;;;;25.21;57.31;100767.50;4941524;28;7422;-79
2022/07/21 06:22:08;;;;;;;;;;;;;;;25.20;57.28;100778.84;4952415;28;6855;-79
2022/07/21 06:24:34;;;;;;;;;;;;;;;25.15;56.31;100773.66;4925284;28;6980;-79
2022/07/21 06:26:59;;;;;;;;;;;;;;;25.13;56.31;100777.19;4948293;28;7179;-79
2022/07/21 06:29:25;;;;;;;;;;;;;;;25.08;56.15;100779.84;4956838;28;6843;-79
2022/07/21 06:31:50;;;;;;;;;;;;;;;25.02;56.32;100769.38;4926150;28;6772;-79
2022/07/21 06:34:16;;;;;;;;;;;;;;;24.98;56.31;100778.16;4949212;28;7100;-79
2022/07/21 06:36:42;;;;;;;;;;;;;;;24.95;56.16;100771.16;4922297;29;7078;-79
2022/07/21 06:39:07;;;;;;;;;;;;;;;24.93;55.97;100768.53;4944665;28;7510;-79
2022/07/21 06:41:32;;;;;;;;;;;;;;;24.94;56.13;100772.91;4950723;28;6780;-79
2022/07/21 06:43:58;;;;;;;;;;;;;;;24.96;55.79;100765.94;4927472;29;6776;-79
2022/07/21 06:46:24;;;;;;;;;;;;;;;24.99;55.86;100770.25;4925857;29;7219;-78
2022/07/21 06:48:49;;;;;;;;;;;;;;;25.01;55.82;100763.25;4953151;28;6936;-79
2022/07/21 06:51:15;;;;;;;;;;;;;;;25.07;55.89;100762.38;4940056;28;7231;-79
2022/07/21 06:53:42;;;;;;;;;;;;;;;25.14;56.06;100764.03;4934273;28;6977;-79
2022/07/21 06:56:08;;;;;;;;;;;;;;;25.25;56.31;100763.97;4952946;28;6856;-79
2022/07/21 06:58:34;;;;;;;;;;;;;;;25.35;55.61;100767.38;4926802;29;7229;-79
2022/07/21 07:00:59;;;;;;;;;;;;;;;25.46;55.15;100772.56;4930002;28;7189;-79
2022/07/21 07:03:25;;;;;;;;;;;;;;;25.52;55.10;100765.53;4908487;29;6976;-79
2022/07/21 07:05:51;;;;;;;;;;;;;;;25.57;55.44;100772.50;4940066;28;8743;-79
2022/07/21 07:08:16;;;;;;;;;;;;;;;25.57;54.42;100790.88;4944916;28;8309;-79
2022/07/21 07:10:43;;;;;;;;;;;;;;;25.55;54.47;100782.16;4938326;28;7069;-79
2022/07/21 07:13:10;;;;;;;;;;;;;;;25.54;54.61;100783.91;4929861;28;7250;-79
2022/07/21 07:15:36;;;;;;;;;;;;;;;25.58;54.99;100779.50;4929147;28;7198;-79
2022/07/21 07:18:01;;;;;;;;;;;;;;;25.65;55.11;100776.81;4952608;28;6764;-79
2022/07/21 07:20:27;;;;;;;;;;;;;;;25.74;55.09;100780.22;4940462;28;6825;-78
2022/07/21 07:22:52;;;;;;;;;;;;;;;25.96;55.05;100783.53;4946369;28;6951;-78
2022/07/21 07:25:18;;;;;;;;;;;;;;;26.22;54.56;100782.44;4951974;28;7224;-79
2022/07/21 07:27:44;;;;;;;;;;;;;;;26.38;53.74;100785.75;4938482;28;7015;-79
2022/07/21 07:30:10;;;;;;;;;;;;;;;26.49;53.78;100785.59;4931694;28;7001;-79
2022/07/21 07:32:36;;;;;;;;;;;;;;;26.59;53.46;100791.63;4958173;28;7135;-79
2022/07/21 07:35:01;;;;;;;;;;;;;;;26.68;52.68;100780.09;4929854;28;6776;-79
2022/07/21 07:37:27;;;;;;;;;;;;;;;26.70;52.32;100784.47;4956829;28;7324;-79
2022/07/21 07:39:52;;;;;;;;;;;;;;;26.69;51.98;100790.59;4933876;28;6772;-79
2022/07/21 07:42:18;;;;;;;;;;;;;;;26.64;51.67;100787.16;4958245;28;7336;-80
2022/07/21 07:44:45;;;;;;;;;;;;;;;26.58;52.17;100793.38;4958138;28;6783;-79
2022/07/21 07:47:10;;;;;;;;;;;;;;;26.55;51.58;100785.53;4959579;28;6947;-78
2022/07/21 07:49:36;;;;;;;;;;;;;;;26.57;51.39;100780.25;4947389;28;7025;-79
2022/07/21 07:52:02;;;;;;;;;;;;;;;26.62;51.46;100783.69;4946646;28;6989;-79
2022/07/21 07:54:28;;;;;;;;;;;;;;;26.68;51.14;100781.00;4942391;28;7276;-79
2022/07/21 07:56:53;;;;;;;;;;;;;;;26.73;50.96;100780.94;4943686;28;7205;-79
2022/07/21 07:59:19;;;;;;;;;;;;;;;26.74;51.00;100786.13;4921164;28;6998;-79
2022/07/21 08:01:44;;;;;;;;;;;;;;;26.76;50.68;100786.13;4944969;28;6937;-78
2022/07/21 08:04:10;;;;;;;;;;;;;;;26.75;50.36;100784.41;4946537;28;6987;-78
2022/07/21 08:06:35;;;;;;;;;;;;;;;26.71;50.25;100780.94;4931772;28;7074;-78
2022/07/21 08:09:01;;;;;;;;;;;;;;;26.70;50.55;100789.72;4922630;28;7037;-79
2022/07/21 08:11:27;;;;;;;;;;;;;;;26.73;50.16;100784.41;4949835;28;6953;-79
2022/07/21 08:13:52;;;;;;;;;;;;;;;26.87;50.58;100793.88;4916967;28;7970;-79
2022/07/21 08:16:18;;;;;;;;;;;;;;;27.07;50.30;100779.63;4933201;28;6938;-78
2022/07/21 08:18:44;;;;;;;;;;;;;;;27.35;50.06;100780.03;4922896;28;7230;-79
2022/07/21 08:21:11;;;;;;;;;;;;;;;27.67;49.56;100767.28;4947341;28;7324;-80
2022/07/21 08:23:36;;;;;;;;;;;;;;;27.89;48.38;100773.03;4938906;28;7001;-79
2022/07/21 08:26:02;;;;;;;;;;;;;;;27.96;47.75;100769.41;4929032;28;7008;-79
2022/07/21 08:28:28;;;;;;;;;;;;;;;27.89;47.09;100761.63;4949828;28;6952;-79
2022/07/21 08:30:53;;;;;;;;;;;;;;;27.77;46.42;100776.75;4931494;28;7090;-79
2022/07/21 08:33:19;;;;;;;;;;;;;;;27.63;46.58;100773.50;4939909;28;6790;-79
2022/07/21 08:35:45;;;;;;;;;;;;;;;27.58;46.87;100768.31;4957776;28;7044;-79
2022/07/21 08:38:13;;;;;;;;;;;;;;;27.58;46.70;100784.97;4931264;28;6919;-79
2022/07/21 08:40:42;;;;;;;;;;;;;;;27.64;46.41;100783.13;4958241;28;7114;-78
2022/07/21 08:43:08;;;;;;;;;;;;;;;27.60;45.70;100782.31;4928413;28;7161;-76
2022/07/21 08:45:35;;;;;;;;;;;;;;;27.55;45.43;100787.66;4927776;28;7108;-77
2022/07/21 08:48:03;;;;;;;;;;;;;;;27.48;45.75;100785.13;4932762;28;7295;-77
2022/07/21 08:50:34;;;;;;;;;;;;;;;27.42;45.95;100783.44;4944233;28;7530;-77
2022/07/21 08:53:00;;;;;;;;;;;;;;;27.34;45.78;100787.97;4947202;28;6974;-77
2022/07/21 08:55:30;;;;;;;;;;;;;;;27.25;45.88;100787.22;4944628;28;7016;-76
2022/07/21 08:57:55;;;;;;;;;;;;;;;27.18;46.26;100788.22;4931626;28;7004;-77
2022/07/21 09:00:21;;;;;;;;;;;;;;;27.14;46.22;100789.16;4939789;28;7824;-77
2022/07/21 09:02:46;;;;;;;;;;;;;;;27.09;46.39;100786.59;4932266;28;6784;-77
2022/07/21 09:05:12;;;;;;;;;;;;;;;27.07;46.67;100784.88;4952192;28;7305;-77
2022/07/21 09:07:55;;;;;;;;;;;;;;;27.07;46.84;100792.75;4941133;28;6930;-76
2022/07/21 09:10:23;;;;;;;;;;;;;;;27.04;47.02;100783.16;4935401;28;7109;-76
2022/07/21 09:12:51;;;;;;;;;;;;;;;27.02;47.08;100801.56;4931373;28;6962;-76
2022/07/21 09:15:18;;;;;;;;;;;;;;;26.98;46.99;100789.38;4925145;28;7035;-76
2022/07/21 09:17:44;;;;;;;;;;;;;;;26.92;47.39;100801.75;4929457;28;7169;-76
2022/07/21 09:20:24;;;;;;;;;;;;;;;26.80;47.28;100805.38;4942021;28;6788;-76
2022/07/21 09:23:12;;;;;;;;;;;;;;;26.62;47.70;100807.34;4945231;28;8480;-77
2022/07/21 09:25:39;;;;;;;;;;;;;;;26.41;47.98;100811.97;4932553;28;6804;-76
2022/07/21 09:28:13;;;;;;;;;;;;;;;26.18;48.54;100814.81;4930337;28;6808;-76
2022/07/21 09:31:00;;;;;;;;;;;;;;;25.88;49.05;100828.25;4955602;28;6977;-75
2022/07/21 09:33:37;;;;;;;;;;;;;;;25.64;50.58;100822.31;4945902;28;6784;-75
2022/07/21 09:36:17;;;;;;;;;;;;;;;25.42;51.26;100823.31;4930572;28;6823;-74
2022/07/21 09:38:50;;;;;;;;;;;;;;;25.25;51.59;100829.53;4929739;28;6976;-77
2022/07/21 09:41:26;;;;;;;;;;;;;;;25.09;52.02;100829.63;4957129;28;7390;-77
2022/07/21 09:43:56;;;;;;;;;;;;;;;24.98;52.56;100828.81;4942226;28;7672;-77
2022/07/21 09:46:29;;;;;;;;;;;;;;;24.85;52.79;100824.53;4947665;28;7024;-77
2022/07/21 09:49:01;;;;;;;;;;;;;;;24.70;53.86;100828.91;4911864;28;7885;-77
2022/07/21 09:51:33;;;;;;;;;;;;;;;24.57;54.26;100824.59;4925923;28;6980;-76
2022/07/21 09:54:02;;;;;;;;;;;;;;;24.46;54.99;100828.13;4936192;28;6776;-76
2022/07/21 09:56:31;;;;;;;;;;;;;;;24.43;54.99;100819.41;4941807;28;6964;-77
2022/07/21 09:58:58;;;;;;;;;;;;;;;24.32;55.47;100827.28;4929270;28;7309;-77
2022/07/21 10:01:25;;;;;;;;;;;;;;;24.19;55.92;100814.22;4927873;28;6796;-77
2022/07/21 10:03:52;;;;;;;;;;;;;;;24.05;56.07;100823.84;4946756;28;7242;-77
2022/07/21 10:06:30;;;;;;;;;;;;;;;23.95;57.02;100826.44;4941232;28;6808;-77
2022/07/21 10:08:57;;;;;;;;;;;;;;;23.84;56.92;100828.19;4949843;28;6800;-77
2022/07/21 10:11:24;;;;;;;;;;;;;;;23.75;57.49;100836.03;4925297;28;7182;-77
2022/07/21 10:13:49;;;;;;;;;;;;;;;23.66;57.28;100831.69;4925378;28;6804;-77
2022/07/21 10:16:15;;;;;;;;;;;;;;;23.57;57.81;100835.16;4926097;28;6900;-77
2022/07/21 10:18:59;;;;;;;;;;;;;;;23.51;57.65;100845.63;4944855;28;7121;-77
2022/07/21 10:21:39;;;;;;;;;;;;;;;23.44;58.15;100837.75;4927305;28;7015;-78
2022/07/21 10:24:05;;;;;;;;;;;;;;;23.39;58.39;100841.22;4933429;28;7456;-78
2022/07/21 10:26:31;;;;;;;;;;;;;;;23.37;58.79;100840.34;4928380;28;7242;-79
2022/07/21 10:28:56;;;;;;;;;;;;;;;23.35;59.21;100849.94;4956310;28;7297;-78
2022/07/21 10:31:25;;;;;;;;;;;;;;;23.32;59.76;100850.81;4934831;28;7261;-79
2022/07/21 10:33:53;;;;;;;;;;;;;;;23.24;59.49;100850.75;4956160;28;7115;-79
2022/07/21 10:36:28;;;;;;;;;;;;;;;23.15;60.15;100856.81;4927925;28;6988;-79
2022/07/21 10:39:08;;;;;;;;;;;;;;;23.08;60.34;100862.94;4956190;28;6995;-79
2022/07/21 10:41:46;;;;;;;;;;;;;;;23.00;60.23;100856.78;4955759;28;7082;-79
2022/07/21 10:44:27;;;;;;;;;;;;;;;22.91;60.38;100859.38;4956872;28;7250;-79
2022/07/21 10:47:20;;;;;;;;;;;;;;;22.83;60.90;100856.69;4944338;28;6976;-78
2022/07/21 10:49:47;;;;;;;;;;;;;;;22.75;61.11;100862.78;4928528;28;7170;-79
2022/07/21 10:52:35;;;;;;;;;;;;;;;22.71;61.51;100863.63;4954349;28;6976;-79
2022/07/21 10:55:09;;;;;;;;;;;;;;;22.65;61.47;100865.34;4931757;28;6996;-79
2022/07/21 10:57:40;;;;;;;;;;;;;;;22.61;61.83;100861.81;4947001;28;7242;-79
2022/07/21 11:00:24;;;;;;;;;;;;;;;22.60;62.03;100865.31;4930148;28;6849;-79
2022/07/21 11:02:59;;;;;;;;;;;;;;;22.58;62.17;100864.44;4950490;28;13287;-80
2022/07/21 11:05:27;;;;;;;;;;;;;;;22.57;62.42;100866.16;4948582;28;7118;-80
2022/07/21 11:08:16;;;;;;;;;;;;;;;22.57;62.56;100865.31;4936270;28;7153;-80
2022/07/21 11:10:44;;;;;;;;;;;;;;;22.56;62.69;100863.56;4956989;28;6986;-80
2022/07/21 11:13:10;;;;;;;;;;;;;;;22.60;62.65;100865.31;4963565;28;6807;-79
2022/07/21 11:15:48;;;;;;;;;;;;;;;22.63;63.38;100869.69;4930753;28;7208;-79
2022/07/21 11:18:18;;;;;;;;;;;;;;;22.64;62.82;100864.44;4923699;28;6941;-79
2022/07/21 11:21:06;;;;;;;;;;;;;;;22.64;63.08;100860.97;4956032;28;7211;-79
2022/07/21 11:23:47;;;;;;;;;;;;;;;22.62;62.76;100863.56;4919158;28;6971;-80
2022/07/21 11:26:15;;;;;;;;;;;;;;;22.60;63.30;100871.41;4933740;28;6933;-79
2022/07/21 11:28:41;;;;;;;;;;;;;;;22.59;63.40;100859.19;4945587;28;7303;-79
2022/07/21 11:31:09;;;;;;;;;;;;;;;22.60;63.19;100855.75;4957198;28;7195;-79
2022/07/21 11:33:39;;;;;;;;;;;;;;;22.61;63.41;100860.09;4931114;28;6982;-79
2022/07/21 11:36:05;;;;;;;;;;;;;;;22.63;63.51;100860.09;4956073;28;7285;-80
2022/07/21 11:38:31;;;;;;;;;;;;;;;22.63;63.10;100862.69;4943971;28;7199;-79
2022/07/21 11:41:19;;;;;;;;;;;;;;;22.63;63.34;100860.09;4959784;28;7254;-79
2022/07/21 11:43:46;;;;;;;;;;;;;;;22.63;63.71;100865.31;4959331;28;7189;-79
2022/07/21 11:46:12;;;;;;;;;;;;;;;22.66;63.40;100864.47;4916306;28;6997;-79
2022/07/21 11:48:38;;;;;;;;;;;;;;;22.69;63.46;100870.59;4948081;28;7285;-79
2022/07/21 11:51:04;;;;;;;;;;;;;;;22.70;63.46;100859.25;4937129;28;7208;-79
2022/07/21 11:53:30;;;;;;;;;;;;;;;22.71;64.29;100855.78;4948645;28;7242;-79
2022/07/21 11:55:57;;;;;;;;;;;;;;;22.73;64.15;100861.03;4959286;28;6772;-79
2022/07/21 11:58:23;;;;;;;;;;;;;;;22.75;64.19;100854.94;4959836;28;6971;-79
2022/07/21 12:01:04;;;;;;;;;;;;;;;22.82;64.09;100860.19;4933026;28;6933;-79
2022/07/21 12:03:29;;;;;;;;;;;;;;;22.84;63.85;100855.84;4944209;28;8276;-79
2022/07/21 12:05:55;;;;;;;;;;;;;;;22.83;64.15;100859.31;4942125;28;6997;-78
2022/07/21 12:08:23;;;;;;;;;;;;;;;22.82;64.01;100862.78;4915702;28;7468;-78
2022/07/21 12:10:48;;;;;;;;;;;;;;;22.81;64.35;100861.06;4934217;28;7227;-78
2022/07/21 12:13:14;;;;;;;;;;;;;;;22.80;64.50;100862.81;4931127;28;7221;-78
2022/07/21 12:15:41;;;;;;;;;;;;;;;22.80;64.41;100867.16;4933080;28;6915;-77
2022/07/21 12:18:17;;;;;;;;;;;;;;;22.82;64.80;100860.19;4955994;28;6981;-78
2022/07/21 12:20:43;;;;;;;;;;;;;;;22.80;64.40;100873.25;4929529;28;6793;-77
2022/07/21 12:23:21;;;;;;;;;;;;;;;22.78;64.37;100869.75;4956232;28;6976;-76
2022/07/21 12:25:46;;;;;;;;;;;;;;;22.79;64.66;100868.03;4938540;28;7018;-77
2022/07/21 12:28:13;;;;;;;;;;;;;;;22.81;64.71;100875.00;4940971;28;7211;-79
2022/07/21 12:30:44;;;;;;;;;;;;;;;22.82;64.96;100868.91;4942518;28;6972;-78
2022/07/21 12:33:13;;;;;;;;;;;;;;;22.81;65.06;100881.97;4943610;28;7203;-79
2022/07/21 12:36:03;;;;;;;;;;;;;;;22.82;64.89;100871.53;4957070;28;7275;-79
2022/07/21 12:38:39;;;;;;;;;;;;;;;22.85;64.69;100875.91;4944142;28;7226;-79
2022/07/21 12:41:05;;;;;;;;;;;;;;;22.88;64.98;100876.75;4952075;28;6994;-79
2022/07/21 12:43:31;;;;;;;;;;;;;;;22.96;64.79;100884.66;4958673;28;7276;-79
2022/07/21 12:46:09;;;;;;;;;;;;;;;23.05;64.92;100883.81;4933483;28;6954;-79
2022/07/21 12:48:36;;;;;;;;;;;;;;;23.11;64.64;100886.44;4943175;28;7849;-80
2022/07/21 12:51:19;;;;;;;;;;;;;;;23.17;64.31;100883.84;4959853;28;6968;-80
2022/07/21 12:53:48;;;;;;;;;;;;;;;23.21;64.18;100886.50;4956461;28;7156;-80